Time;durP1;ratioP1;P1;durP2;ratioP2;P2;SDS_P1;SDS_P2;PMS_P1;PMS_P2;Temp;Humidity;BMP_temperature;BMP_pressure;BME280_temperature;BME280_humidity;BME280_pressure;Samples;Min_cycle;Max_cycle;Signal;HPM_P1;HPM_P2
2021/01/22 00:02:27;;;;;;;4.00;3.90;;;11.80;97.10;;;;;;4953530;29;20453;-24
2021/01/22 00:04:54;;;;;;;3.97;3.87;;;12.00;97.00;;;;;;4955103;29;20445;-25
2021/01/22 00:07:20;;;;;;;3.70;3.60;;;12.00;96.90;;;;;;4954922;29;20462;-24
2021/01/22 00:09:48;;;;;;;3.93;3.83;;;12.00;97.10;;;;;;4955172;29;20481;-24
2021/01/22 00:12:15;;;;;;;3.97;3.87;;;12.00;97.00;;;;;;4953825;29;20451;-25
2021/01/22 00:14:43;;;;;;;3.73;3.67;;;12.00;97.00;;;;;;4955204;29;20776;-25
2021/01/22 00:17:10;;;;;;;3.90;3.80;;;12.00;97.10;;;;;;4955018;29;20438;-24
2021/01/22 00:19:37;;;;;;;3.77;3.70;;;12.00;97.10;;;;;;4953408;29;20501;-25
2021/01/22 00:22:03;;;;;;;4.00;3.90;;;11.90;97.20;;;;;;4955226;29;20760;-24
2021/01/22 00:24:30;;;;;;;4.10;4.00;;;11.90;97.20;;;;;;4954806;29;20459;-24
2021/01/22 00:26:57;;;;;;;3.80;3.80;;;11.90;97.10;;;;;;4955244;29;20583;-24
2021/01/22 00:29:23;;;;;;;3.90;3.80;;;12.00;97.30;;;;;;4953971;29;20830;-24
2021/01/22 00:31:53;;;;;;;3.77;3.77;;;12.00;97.10;;;;;;4954828;29;20533;-24
2021/01/22 00:34:19;;;;;;;3.90;3.80;;;11.90;96.90;;;;;;4955099;29;20442;-25
2021/01/22 00:36:46;;;;;;;4.00;3.90;;;11.90;97.20;;;;;;4956743;29;21065;-25
2021/01/22 00:39:13;;;;;;;4.00;3.90;;;11.80;97.30;;;;;;4955293;28;20443;-24
2021/01/22 00:41:39;;;;;;;3.90;3.80;;;11.80;97.20;;;;;;4953788;29;20450;-24
2021/01/22 00:44:06;;;;;;;4.17;4.07;;;11.70;97.30;;;;;;4953918;29;20544;-25
2021/01/22 00:46:33;;;;;;;4.03;3.93;;;11.60;97.40;;;;;;4936764;29;20446;-25
2021/01/22 00:49:00;;;;;;;4.03;3.93;;;11.60;97.60;;;;;;4953661;29;20473;-24
2021/01/22 00:51:27;;;;;;;4.00;3.90;;;11.60;97.50;;;;;;4937110;29;20454;-24
2021/01/22 00:53:54;;;;;;;3.90;3.80;;;11.60;97.60;;;;;;4954467;29;20458;-24
2021/01/22 00:56:21;;;;;;;4.50;4.40;;;11.60;97.70;;;;;;4952389;29;20434;-25
2021/01/22 00:58:54;;;;;;;3.90;3.80;;;11.60;97.70;;;;;;4935990;29;20445;-25
2021/01/22 01:01:28;;;;;;;3.97;3.87;;;11.50;97.80;;;;;;4952418;29;20572;-25
2021/01/22 01:04:00;;;;;;;4.50;4.37;;;11.50;97.80;;;;;;4936486;29;20442;-25
2021/01/22 01:06:32;;;;;;;4.87;4.63;;;11.40;98.00;;;;;;4951579;29;20450;-24
2021/01/22 01:09:01;;;;;;;4.53;4.43;;;11.30;98.20;;;;;;4952089;29;20486;-25
2021/01/22 01:11:47;;;;;;;4.10;3.90;;;11.20;98.40;;;;;;4937864;29;20443;-24
2021/01/22 01:14:18;;;;;;;4.20;4.10;;;11.10;98.70;;;;;;4953246;29;20446;-25
2021/01/22 01:16:45;;;;;;;4.20;4.10;;;11.00;98.80;;;;;;4957154;29;20450;-24
2021/01/22 01:19:13;;;;;;;4.10;4.00;;;11.00;99.00;;;;;;4955626;29;20539;-24
2021/01/22 01:21:39;;;;;;;4.20;4.10;;;10.90;99.20;;;;;;4954319;29;21152;-25
2021/01/22 01:24:07;;;;;;;4.10;4.00;;;10.90;99.30;;;;;;4953565;29;20473;-24
2021/01/22 01:26:33;;;;;;;4.17;4.07;;;10.80;99.40;;;;;;4953844;29;20446;-25
2021/01/22 01:29:00;;;;;;;4.10;4.00;;;10.80;99.40;;;;;;4954305;29;20935;-25
2021/01/22 01:31:27;;;;;;;4.20;4.10;;;10.80;99.50;;;;;;4951877;29;20598;-24
2021/01/22 01:33:53;;;;;;;4.10;4.00;;;10.80;99.50;;;;;;4953692;29;20454;-25
2021/01/22 01:36:21;;;;;;;3.70;3.70;;;10.80;99.70;;;;;;4952735;29;20438;-24
2021/01/22 01:38:48;;;;;;;4.00;3.90;;;10.70;99.70;;;;;;4953392;29;20521;-25
2021/01/22 01:41:15;;;;;;;4.10;4.00;;;10.80;99.80;;;;;;4953137;29;20515;-25
2021/01/22 01:43:41;;;;;;;3.63;3.63;;;10.80;99.60;;;;;;4953922;29;20533;-24
2021/01/22 01:46:08;;;;;;;3.60;3.50;;;10.90;99.70;;;;;;4952467;29;20446;-25
2021/01/22 01:48:35;;;;;;;4.20;4.10;;;10.90;99.60;;;;;;4953476;29;20466;-24
2021/01/22 01:51:02;;;;;;;3.83;3.73;;;10.90;99.50;;;;;;4954149;28;20734;-25
2021/01/22 01:53:30;;;;;;;3.60;3.60;;;10.90;99.60;;;;;;4953796;29;20465;-24
2021/01/22 01:55:57;;;;;;;4.07;3.97;;;10.90;99.70;;;;;;4952656;29;20513;-25
2021/01/22 01:58:25;;;;;;;3.83;3.77;;;10.90;99.80;;;;;;4953537;29;20537;-24
2021/01/22 02:00:52;;;;;;;3.90;3.80;;;11.00;99.80;;;;;;4952106;29;21268;-24
2021/01/22 02:03:19;;;;;;;4.10;4.00;;;11.10;99.70;;;;;;4953035;29;21037;-25
2021/01/22 02:05:47;;;;;;;3.80;3.77;;;11.10;99.80;;;;;;4953207;29;20447;-25
2021/01/22 02:08:14;;;;;;;3.90;3.80;;;11.20;99.70;;;;;;4952550;29;20486;-24
2021/01/22 02:10:43;;;;;;;4.03;3.93;;;11.20;99.60;;;;;;4952797;29;20462;-24
2021/01/22 02:13:10;;;;;;;3.97;3.87;;;11.20;99.60;;;;;;4953746;29;20442;-25
2021/01/22 02:15:37;;;;;;;4.60;4.40;;;11.20;99.50;;;;;;4953804;29;20727;-25
2021/01/22 02:18:06;;;;;;;3.90;3.80;;;11.20;99.60;;;;;;4952349;29;20450;-24
2021/01/22 02:20:46;;;;;;;4.07;3.97;;;11.20;99.60;;;;;;4952436;29;20448;-25
2021/01/22 02:23:16;;;;;;;3.83;3.73;;;11.10;99.50;;;;;;4953211;29;20553;-25
2021/01/22 02:25:44;;;;;;;4.17;4.07;;;11.10;99.40;;;;;;4953528;29;20537;-24
2021/01/22 02:28:14;;;;;;;4.10;3.93;;;11.00;99.40;;;;;;4953466;29;20533;-25
2021/01/22 02:30:43;;;;;;;4.40;4.20;;;11.10;99.50;;;;;;4953917;29;20539;-25
2021/01/22 02:33:11;;;;;;;4.30;4.20;;;11.10;99.50;;;;;;4953759;29;21067;-25
2021/01/22 02:35:40;;;;;;;4.00;3.90;;;11.10;99.50;;;;;;4953572;29;20899;-25
2021/01/22 02:38:09;;;;;;;5.07;4.77;;;11.20;99.50;;;;;;4953373;29;20450;-24
2021/01/22 02:40:37;;;;;;;4.37;4.17;;;11.20;99.50;;;;;;4953289;29;20505;-25
2021/01/22 02:43:05;;;;;;;4.53;4.10;;;11.20;99.60;;;;;;4952843;29;20497;-25
2021/01/22 02:45:33;;;;;;;4.30;4.20;;;11.20;99.70;;;;;;4952835;29;20438;-25
2021/01/22 02:48:01;;;;;;;4.20;4.10;;;11.10;99.80;;;;;;4952584;29;20450;-25
2021/01/22 02:50:32;;;;;;;4.70;4.20;;;11.20;99.80;;;;;;4952614;29;20454;-24
2021/01/22 02:53:00;;;;;;;4.40;4.30;;;11.10;99.70;;;;;;4953194;29;20453;-25
2021/01/22 02:55:27;;;;;;;4.43;4.33;;;11.10;99.90;;;;;;4953151;29;20439;-25
2021/01/22 02:58:00;;;;;;;4.30;4.10;;;11.00;99.90;;;;;;4952938;29;20641;-25
2021/01/22 03:00:31;;;;;;;4.10;4.00;;;11.00;99.90;;;;;;4952965;29;20502;-24
2021/01/22 03:03:06;;;;;;;5.80;5.30;;;11.00;99.90;;;;;;4952882;28;20450;-25
2021/01/22 03:05:36;;;;;;;4.80;4.60;;;10.90;99.90;;;;;;4952603;29;20541;-25
2021/01/22 03:08:08;;;;;;;7.40;4.63;;;10.90;99.90;;;;;;4936002;29;20462;-25
2021/01/22 03:10:36;;;;;;;4.90;4.70;;;10.90;99.90;;;;;;4952826;29;20480;-24
2021/01/22 03:13:04;;;;;;;5.03;4.53;;;10.80;99.90;;;;;;4953553;29;20466;-25
2021/01/22 03:15:32;;;;;;;4.53;4.43;;;10.90;99.90;;;;;;4953059;29;21010;-25
2021/01/22 03:18:14;;;;;;;5.00;4.80;;;10.80;99.90;;;;;;4953910;29;20512;-24
2021/01/22 03:20:42;;;;;;;4.80;4.67;;;10.80;99.90;;;;;;4953800;29;21122;-24
2021/01/22 03:23:10;;;;;;;4.70;4.50;;;10.70;99.90;;;;;;4953466;29;20568;-24
2021/01/22 03:25:36;;;;;;;5.30;4.87;;;10.70;99.90;;;;;;4953401;29;20473;-25
2021/01/22 03:28:04;;;;;;;4.37;4.20;;;10.70;99.90;;;;;;4953152;29;20442;-24
2021/01/22 03:30:31;;;;;;;4.93;4.73;;;10.70;99.90;;;;;;4952685;29;20449;-24
2021/01/22 03:32:58;;;;;;;4.70;4.40;;;10.60;99.90;;;;;;4953261;29;20469;-24
2021/01/22 03:35:26;;;;;;;4.67;4.47;;;10.50;99.90;;;;;;4953558;29;20728;-24
2021/01/22 03:37:53;;;;;;;4.80;4.60;;;10.50;99.90;;;;;;4953905;29;20497;-24
2021/01/22 03:40:20;;;;;;;5.20;4.90;;;10.50;99.90;;;;;;4952885;29;20446;-25
2021/01/22 03:42:47;;;;;;;4.63;4.43;;;10.50;99.90;;;;;;4954539;29;20486;-25
2021/01/22 03:45:15;;;;;;;5.23;4.87;;;10.40;99.90;;;;;;4955711;29;20543;-24
2021/01/22 03:47:42;;;;;;;4.53;4.43;;;10.50;99.90;;;;;;4954667;29;20479;-25
2021/01/22 03:50:10;;;;;;;5.00;4.63;;;10.40;99.90;;;;;;4952606;29;20498;-25
2021/01/22 03:52:37;;;;;;;4.80;4.60;;;10.30;99.90;;;;;;4953106;29;20914;-24
2021/01/22 03:55:06;;;;;;;4.80;4.57;;;10.20;99.90;;;;;;4953651;29;20772;-24
2021/01/22 03:57:32;;;;;;;4.70;4.50;;;10.10;99.90;;;;;;4951912;29;20498;-24
2021/01/22 03:59:59;;;;;;;5.00;4.70;;;10.10;99.90;;;;;;4952425;29;20478;-25
2021/01/22 04:02:26;;;;;;;4.77;4.57;;;10.00;99.90;;;;;;4950912;29;20473;-25
2021/01/22 04:04:52;;;;;;;5.03;4.67;;;10.00;99.90;;;;;;4935254;29;20466;-25
2021/01/22 04:07:19;;;;;;;4.80;4.63;;;10.00;99.90;;;;;;4951882;29;20520;-24
2021/01/22 04:09:47;;;;;;;5.27;4.90;;;9.90;99.90;;;;;;4951148;29;20489;-24
2021/01/22 04:12:13;;;;;;;4.90;4.60;;;9.80;99.90;;;;;;4951312;29;20485;-25
2021/01/22 04:14:40;;;;;;;4.57;4.47;;;9.80;99.90;;;;;;4952953;28;20437;-24
2021/01/22 04:17:07;;;;;;;6.30;5.80;;;9.80;99.90;;;;;;4955998;29;20446;-25
2021/01/22 04:19:36;;;;;;;5.50;5.10;;;9.70;99.90;;;;;;4955176;29;20506;-25
2021/01/22 04:22:02;;;;;;;5.03;4.83;;;9.70;99.90;;;;;;4954725;29;20438;-25
2021/01/22 04:24:29;;;;;;;4.80;4.50;;;9.70;99.90;;;;;;4955828;29;20454;-24
2021/01/22 04:26:57;;;;;;;5.60;5.40;;;9.70;99.90;;;;;;4954672;29;20446;-25
2021/01/22 04:29:23;;;;;;;5.73;5.33;;;9.60;99.90;;;;;;4955909;29;20572;-24
2021/01/22 04:31:50;;;;;;;5.93;5.43;;;9.60;99.90;;;;;;4955118;29;20454;-24
2021/01/22 04:34:17;;;;;;;5.10;4.80;;;9.50;99.90;;;;;;4953941;29;20876;-24
2021/01/22 04:36:44;;;;;;;4.93;4.50;;;9.50;99.90;;;;;;4955301;29;21084;-24
2021/01/22 04:39:10;;;;;;;4.97;4.87;;;9.40;99.90;;;;;;4955436;29;20879;-24
2021/01/22 04:41:37;;;;;;;5.20;4.90;;;9.40;99.90;;;;;;4954869;29;20434;-24
2021/01/22 04:44:05;;;;;;;5.20;5.00;;;9.40;99.90;;;;;;4955064;29;20512;-24
2021/01/22 04:46:34;;;;;;;5.20;4.90;;;9.40;99.90;;;;;;4954720;29;20749;-25
2021/01/22 04:49:01;;;;;;;5.50;5.00;;;9.40;99.90;;;;;;4952199;29;20466;-24
2021/01/22 04:51:30;;;;;;;5.67;5.27;;;9.40;99.90;;;;;;4953509;29;20453;-24
2021/01/22 04:54:04;;;;;;;5.13;4.93;;;9.50;99.90;;;;;;4950815;29;20509;-25
2021/01/22 04:56:35;;;;;;;6.90;5.10;;;9.50;99.90;;;;;;4953893;29;20449;-24
2021/01/22 04:59:09;;;;;;;5.53;5.23;;;9.60;99.90;;;;;;4953834;29;20446;-24
2021/01/22 05:01:37;;;;;;;4.70;4.50;;;9.60;99.90;;;;;;4952412;29;20965;-26
2021/01/22 05:04:04;;;;;;;5.63;5.33;;;9.70;99.90;;;;;;4953115;29;20465;-24
2021/01/22 05:06:30;;;;;;;4.70;4.60;;;9.70;99.90;;;;;;4954345;29;20474;-24
2021/01/22 05:08:57;;;;;;;5.80;5.30;;;9.70;99.90;;;;;;4952615;29;20648;-24
2021/01/22 05:11:24;;;;;;;5.63;5.20;;;9.70;99.90;;;;;;4935971;29;20469;-24
2021/01/22 05:13:52;;;;;;;5.80;5.40;;;9.70;99.90;;;;;;4953523;29;20438;-24
2021/01/22 05:16:23;;;;;;;5.10;4.90;;;9.70;99.90;;;;;;4952780;29;20865;-24
2021/01/22 05:18:50;;;;;;;5.70;5.30;;;9.70;99.90;;;;;;4953324;29;20450;-24
2021/01/22 05:21:19;;;;;;;5.40;5.10;;;9.70;99.90;;;;;;4952094;29;20513;-24
2021/01/22 05:23:46;;;;;;;5.63;5.33;;;9.70;99.90;;;;;;4953016;29;20461;-25
2021/01/22 05:26:16;;;;;;;5.47;5.27;;;9.70;99.90;;;;;;4952903;28;20853;-25
2021/01/22 05:28:44;;;;;;;6.23;5.93;;;9.70;99.90;;;;;;4952080;29;20903;-24
2021/01/22 05:31:13;;;;;;;5.50;5.30;;;9.70;99.90;;;;;;4950755;29;20536;-25
2021/01/22 05:33:42;;;;;;;5.80;5.50;;;9.70;99.90;;;;;;4949506;29;20852;-24
2021/01/22 05:36:27;;;;;;;5.03;4.83;;;9.80;99.90;;;;;;4950481;29;20537;-25
2021/01/22 05:38:56;;;;;;;4.70;4.53;;;9.70;99.90;;;;;;4951086;29;20449;-24
2021/01/22 05:41:24;;;;;;;5.80;5.40;;;9.70;99.90;;;;;;4949030;29;20586;-24
2021/01/22 05:43:51;;;;;;;6.17;5.77;;;9.80;99.90;;;;;;4948821;29;20434;-24
2021/01/22 05:46:20;;;;;;;7.50;6.90;;;9.80;99.90;;;;;;4949931;29;20453;-24
2021/01/22 05:48:48;;;;;;;6.40;6.10;;;9.80;99.90;;;;;;4947113;29;20493;-24
2021/01/22 05:51:15;;;;;;;5.87;5.67;;;9.90;99.90;;;;;;4948074;29;20470;-24
2021/01/22 05:53:46;;;;;;;5.13;4.93;;;9.90;99.90;;;;;;4949420;29;20567;-24
2021/01/22 05:56:14;;;;;;;5.07;4.87;;;9.90;99.90;;;;;;4947102;29;20521;-25
2021/01/22 05:58:42;;;;;;;5.60;5.20;;;9.80;99.90;;;;;;4945714;29;20597;-25
2021/01/22 06:01:11;;;;;;;4.87;4.70;;;9.90;99.90;;;;;;4944770;29;20954;-24
2021/01/22 06:03:39;;;;;;;5.33;5.13;;;9.90;99.90;;;;;;4946449;29;20514;-25
2021/01/22 06:06:08;;;;;;;5.00;4.90;;;9.90;99.90;;;;;;4944056;29;21124;-24
2021/01/22 06:08:47;;;;;;;4.83;4.63;;;10.00;99.90;;;;;;4943513;29;20488;-24
2021/01/22 06:11:15;;;;;;;5.00;4.80;;;10.00;99.90;;;;;;4945711;29;20442;-24
2021/01/22 06:13:46;;;;;;;5.47;5.10;;;10.00;99.90;;;;;;4942289;29;20520;-24
2021/01/22 06:16:16;;;;;;;5.30;5.20;;;10.00;99.90;;;;;;4942419;29;20444;-24
2021/01/22 06:18:47;;;;;;;5.13;4.93;;;10.00;99.90;;;;;;4944172;29;20453;-24
2021/01/22 06:21:20;;;;;;;4.67;4.57;;;9.90;99.90;;;;;;4943821;29;20489;-24
2021/01/22 06:23:48;;;;;;;4.80;4.70;;;9.90;99.90;;;;;;4942191;29;20938;-25
2021/01/22 06:26:16;;;;;;;6.23;5.93;;;9.80;99.90;;;;;;4941040;29;20719;-24
2021/01/22 06:28:44;;;;;;;5.33;5.03;;;9.80;99.90;;;;;;4940239;29;20493;-25
2021/01/22 06:31:12;;;;;;;5.20;5.00;;;9.90;99.90;;;;;;4940319;29;20473;-24
2021/01/22 06:33:42;;;;;;;4.40;4.30;;;9.90;99.90;;;;;;4925443;29;21206;-24
2021/01/22 06:36:10;;;;;;;4.90;4.50;;;9.90;99.90;;;;;;4921790;29;20450;-24
2021/01/22 06:38:41;;;;;;;4.83;4.47;;;10.00;99.90;;;;;;4917853;29;20462;-25
2021/01/22 06:41:09;;;;;;;4.60;4.40;;;10.00;99.90;;;;;;4917820;29;20574;-24
2021/01/22 06:43:37;;;;;;;5.03;4.70;;;10.00;99.90;;;;;;4920497;29;20490;-24
2021/01/22 06:46:08;;;;;;;5.00;4.70;;;10.10;99.90;;;;;;4919414;29;20842;-24
2021/01/22 06:48:53;;;;;;;5.30;5.10;;;10.10;99.90;;;;;;4913256;29;20537;-24
2021/01/22 06:51:21;;;;;;;5.90;4.60;;;10.10;99.90;;;;;;4914211;29;20475;-24
2021/01/22 06:54:08;;;;;;;5.00;4.80;;;10.10;99.90;;;;;;4916827;29;20905;-25
2021/01/22 06:56:57;;;;;;;4.53;4.40;;;10.10;99.90;;;;;;4918172;29;20809;-24
2021/01/22 06:59:37;;;;;;;4.50;4.30;;;10.00;99.90;;;;;;4916002;29;20557;-24
2021/01/22 07:02:26;;;;;;;4.10;4.00;;;10.10;99.90;;;;;;4916296;29;20502;-24
2021/01/22 07:04:54;;;;;;;4.37;4.17;;;10.20;99.90;;;;;;4913240;29;20831;-24
2021/01/22 07:07:48;;;;;;;4.17;4.00;;;10.10;99.90;;;;;;4913142;29;20450;-24
2021/01/22 07:10:16;;;;;;;4.10;4.00;;;10.20;99.90;;;;;;4893261;29;20506;-24
2021/01/22 07:12:48;;;;;;;4.00;3.90;;;10.10;99.90;;;;;;4911346;29;20786;-24
2021/01/22 07:15:29;;;;;;;4.03;3.93;;;10.20;99.90;;;;;;4908987;29;20456;-24
2021/01/22 07:17:59;;;;;;;6.50;6.00;;;10.20;99.90;;;;;;4911964;29;20458;-25
2021/01/22 07:20:29;;;;;;;5.17;4.97;;;10.30;99.90;;;;;;4907780;29;20463;-24
2021/01/22 07:22:59;;;;;;;5.10;4.80;;;10.30;99.90;;;;;;4905534;29;20832;-24
2021/01/22 07:25:32;;;;;;;4.37;4.27;;;10.30;99.90;;;;;;4910609;29;21134;-24
2021/01/22 07:28:07;;;;;;;4.07;3.67;;;10.40;99.90;;;;;;4911917;29;20439;-24
2021/01/22 07:30:41;;;;;;;3.87;3.37;;;10.40;99.90;;;;;;4909138;29;20479;-24
2021/01/22 07:33:37;;;;;;;3.63;3.23;;;10.50;99.90;;;;;;4910253;29;20451;-24
2021/01/22 07:36:07;;;;;;;3.67;3.10;;;10.70;99.90;;;;;;4893710;29;20478;-24
2021/01/22 07:38:37;;;;;;;3.30;3.10;;;10.90;99.70;;;;;;4911678;29;20462;-24
2021/01/22 07:41:05;;;;;;;4.10;3.90;;;11.00;99.50;;;;;;4912939;29;20503;-24
2021/01/22 07:43:33;;;;;;;3.90;3.20;;;11.00;99.20;;;;;;4909972;29;20569;-24
2021/01/22 07:46:06;;;;;;;3.93;3.70;;;11.10;99.20;;;;;;4911210;29;20477;-24
2021/01/22 07:48:34;;;;;;;4.67;4.27;;;11.10;99.00;;;;;;4921093;28;20500;-24
2021/01/22 07:51:32;;;;;;;4.33;4.13;;;11.20;98.90;;;;;;4930603;29;21323;-26
2021/01/22 07:54:01;;;;;;;4.33;3.93;;;11.30;99.00;;;;;;4933809;29;20446;-24
2021/01/22 07:56:36;;;;;;;4.07;3.67;;;11.30;98.90;;;;;;4923941;29;20547;-26
2021/01/22 07:59:06;;;;;;;4.27;4.03;;;11.40;98.80;;;;;;4932306;29;20437;-26
2021/01/22 08:01:37;;;;;;;4.40;4.20;;;11.50;98.70;;;;;;4929547;28;20488;-25
2021/01/22 08:04:06;;;;;;;4.17;3.80;;;11.60;98.50;;;;;;4930755;29;20462;-25
2021/01/22 08:06:50;;;;;;;4.23;4.03;;;11.80;98.40;;;;;;4931809;29;21080;-25
2021/01/22 08:09:18;;;;;;;4.47;4.17;;;11.90;98.20;;;;;;4927387;29;20552;-25
2021/01/22 08:11:47;;;;;;;3.90;3.70;;;12.10;97.90;;;;;;4929261;29;20454;-25
2021/01/22 08:14:29;;;;;;;6.23;5.77;;;12.30;97.70;;;;;;4932763;29;20466;-25
2021/01/22 08:16:57;;;;;;;6.27;5.87;;;12.40;97.40;;;;;;4926514;28;20548;-25
2021/01/22 08:19:26;;;;;;;4.73;4.43;;;12.40;97.10;;;;;;4922574;29;20465;-26
2021/01/22 08:21:53;;;;;;;4.60;4.40;;;12.30;97.10;;;;;;4928103;29;20497;-25
2021/01/22 08:24:22;;;;;;;4.77;4.50;;;12.30;97.20;;;;;;4926556;29;20507;-26
2021/01/22 08:26:59;;;;;;;3.87;3.57;;;12.20;97.20;;;;;;4931623;29;20521;-25
2021/01/22 08:29:28;;;;;;;4.60;4.33;;;12.10;97.10;;;;;;4890706;29;20487;-25
2021/01/22 08:31:56;;;;;;;4.93;4.73;;;12.00;97.30;;;;;;4892912;29;20450;-25
2021/01/22 08:34:24;;;;;;;4.30;4.10;;;12.00;97.70;;;;;;4890242;29;20459;-25
2021/01/22 08:36:56;;;;;;;4.27;4.07;;;11.90;97.50;;;;;;4866319;29;20444;-25
2021/01/22 08:39:24;;;;;;;4.53;4.33;;;11.80;97.60;;;;;;4881536;29;20452;-25
2021/01/22 08:41:52;;;;;;;5.23;4.70;;;11.80;97.90;;;;;;4892104;29;20480;-25
2021/01/22 08:44:22;;;;;;;5.27;4.87;;;11.70;97.60;;;;;;4888911;29;20519;-26
2021/01/22 08:46:53;;;;;;;5.37;4.30;;;11.70;97.80;;;;;;4889935;29;20451;-24
2021/01/22 08:49:22;;;;;;;3.90;3.70;;;11.80;97.80;;;;;;4886975;29;20490;-24
2021/01/22 08:51:50;;;;;;;3.80;3.60;;;12.00;97.70;;;;;;4886262;29;20516;-24
2021/01/22 08:54:19;;;;;;;5.80;4.97;;;12.30;97.30;;;;;;4888190;29;20455;-24
2021/01/22 08:57:05;;;;;;;9.57;6.47;;;12.50;96.90;;;;;;4885938;29;20487;-24
2021/01/22 08:59:47;;;;;;;10.40;8.80;;;12.70;96.70;;;;;;4884665;29;20447;-25
2021/01/22 09:02:15;;;;;;;10.47;9.30;;;12.80;96.50;;;;;;4886855;29;20510;-24
2021/01/22 09:04:44;;;;;;;16.10;14.40;;;12.80;96.20;;;;;;4887883;29;20436;-24
2021/01/22 09:07:18;;;;;;;21.07;15.20;;;12.70;96.00;;;;;;4889736;29;20466;-24
2021/01/22 09:09:47;;;;;;;8.47;7.73;;;12.70;96.20;;;;;;4886487;29;20507;-24
2021/01/22 09:12:25;;;;;;;6.63;6.13;;;12.80;96.10;;;;;;4891523;29;20559;-24
2021/01/22 09:15:05;;;;;;;7.00;6.50;;;12.90;96.00;;;;;;4891589;29;20893;-24
2021/01/22 09:17:41;;;;;;;8.57;7.97;;;12.90;96.00;;;;;;4892421;29;20443;-24
2021/01/22 09:20:20;;;;;;;4.87;4.67;;;12.90;95.80;;;;;;4891213;29;20482;-24
2021/01/22 09:22:49;;;;;;;5.43;5.23;;;12.90;95.90;;;;;;4900301;28;20505;-24
2021/01/22 09:25:18;;;;;;;5.43;5.23;;;12.90;95.90;;;;;;4925260;29;20450;-26
2021/01/22 09:27:47;;;;;;;5.73;5.23;;;13.10;95.80;;;;;;4926864;29;20464;-24
2021/01/22 09:30:25;;;;;;;5.97;5.47;;;13.20;95.50;;;;;;4925221;29;20470;-25
2021/01/22 09:32:53;;;;;;;6.13;5.63;;;13.20;95.30;;;;;;4930694;29;20460;-24
2021/01/22 09:35:24;;;;;;;5.70;5.40;;;13.20;95.30;;;;;;4935027;29;20458;-24
2021/01/22 09:37:54;;;;;;;5.43;5.07;;;13.10;95.20;;;;;;4930647;29;20466;-25
2021/01/22 09:40:24;;;;;;;5.37;5.00;;;13.00;95.30;;;;;;4930481;29;20947;-25
2021/01/22 09:42:55;;;;;;;4.90;4.60;;;12.90;95.40;;;;;;4926204;29;20430;-24
2021/01/22 09:45:23;;;;;;;5.13;4.73;;;12.90;95.60;;;;;;4923628;29;20585;-24
2021/01/22 09:47:51;;;;;;;5.63;5.23;;;12.80;95.50;;;;;;4928671;29;20983;-24
2021/01/22 09:50:19;;;;;;;4.17;3.97;;;12.80;95.60;;;;;;4923893;29;20478;-25
2021/01/22 09:52:47;;;;;;;4.33;4.00;;;12.90;95.50;;;;;;4928064;28;20470;-24
2021/01/22 09:55:17;;;;;;;4.63;4.23;;;12.90;95.60;;;;;;4928170;29;20442;-24
2021/01/22 09:57:45;;;;;;;5.00;4.10;;;13.00;95.50;;;;;;4911538;29;20484;-25
2021/01/22 10:00:17;;;;;;;7.20;6.50;;;13.20;95.50;;;;;;4910135;29;20458;-25
2021/01/22 10:02:48;;;;;;;11.40;8.77;;;13.30;95.40;;;;;;4928632;29;20774;-25
2021/01/22 10:05:17;;;;;;;6.50;6.03;;;13.50;95.30;;;;;;4914490;29;20459;-25
2021/01/22 10:07:46;;;;;;;4.70;4.23;;;13.80;95.10;;;;;;4928879;29;20473;-25
2021/01/22 10:10:14;;;;;;;6.00;5.50;;;13.90;94.70;;;;;;4924296;29;20478;-25
2021/01/22 10:12:46;;;;;;;8.00;5.47;;;13.90;94.60;;;;;;4927618;28;20512;-25
2021/01/22 10:15:14;;;;;;;4.87;4.60;;;14.10;94.50;;;;;;4926922;29;20470;-25
2021/01/22 10:17:42;;;;;;;4.87;4.47;;;14.20;94.10;;;;;;4926551;29;20634;-25
2021/01/22 10:20:11;;;;;;;3.93;3.73;;;14.20;93.90;;;;;;4926059;29;20545;-25
2021/01/22 10:22:42;;;;;;;4.60;3.70;;;14.30;93.80;;;;;;4927943;29;20493;-25
2021/01/22 10:25:16;;;;;;;9.10;4.90;;;14.20;93.80;;;;;;4914615;28;20546;-25
2021/01/22 10:27:44;;;;;;;14.57;11.63;;;14.30;93.90;;;;;;4904768;29;20451;-25
2021/01/22 10:30:14;;;;;;;6.57;5.20;;;14.40;93.90;;;;;;4905741;29;20481;-25
2021/01/22 10:32:41;;;;;;;5.27;5.07;;;14.50;93.60;;;;;;4906096;29;20451;-25
2021/01/22 10:35:10;;;;;;;6.80;5.33;;;14.60;93.50;;;;;;4906884;29;20522;-25
2021/01/22 10:37:46;;;;;;;4.20;4.00;;;14.70;93.30;;;;;;4907283;29;20527;-25
2021/01/22 10:40:19;;;;;;;3.67;3.43;;;14.70;92.90;;;;;;4906746;29;21101;-25
2021/01/22 10:42:50;;;;;;;3.67;3.40;;;14.70;92.70;;;;;;4906168;29;20443;-26
2021/01/22 10:45:20;;;;;;;3.60;3.40;;;14.70;92.60;;;;;;4902782;29;20502;-25
2021/01/22 10:47:47;;;;;;;3.40;3.17;;;14.90;92.60;;;;;;4901695;29;20475;-25
2021/01/22 10:50:16;;;;;;;4.77;4.43;;;14.90;92.50;;;;;;4914076;28;20515;-26
2021/01/22 10:52:44;;;;;;;3.50;3.37;;;14.90;92.50;;;;;;4947605;28;20536;-25
2021/01/22 10:55:20;;;;;;;5.33;3.07;;;14.90;92.30;;;;;;4926885;28;20887;-26
2021/01/22 10:57:49;;;;;;;3.53;3.30;;;15.00;92.20;;;;;;4943045;28;20918;-25
2021/01/22 11:00:23;;;;;;;6.77;4.30;;;15.10;92.10;;;;;;4945857;28;20461;-25
2021/01/22 11:02:55;;;;;;;3.93;3.83;;;15.10;92.10;;;;;;4943787;28;20544;-25
2021/01/22 11:05:27;;;;;;;4.07;3.77;;;15.10;91.80;;;;;;4935033;28;20460;-25
2021/01/22 11:07:59;;;;;;;4.70;3.60;;;15.20;91.70;;;;;;4940602;28;20533;-26
2021/01/22 11:10:31;;;;;;;3.77;3.47;;;15.20;91.60;;;;;;4944470;28;20579;-26
2021/01/22 11:12:58;;;;;;;5.53;4.63;;;15.20;91.50;;;;;;4929805;28;20667;-25
2021/01/22 11:15:25;;;;;;;4.90;4.10;;;15.20;91.60;;;;;;4941318;28;20753;-25
2021/01/22 11:17:52;;;;;;;4.30;3.77;;;15.10;91.40;;;;;;4940087;28;20848;-25
2021/01/22 11:20:19;;;;;;;4.50;3.60;;;15.10;91.40;;;;;;4942167;28;20752;-25
2021/01/22 11:22:46;;;;;;;4.77;3.90;;;15.10;91.50;;;;;;4942458;28;20500;-26
2021/01/22 11:25:14;;;;;;;4.17;4.07;;;15.20;91.50;;;;;;4943174;28;20525;-25
2021/01/22 11:27:42;;;;;;;5.40;5.00;;;15.20;91.20;;;;;;4921400;28;20737;-25
2021/01/22 11:30:11;;;;;;;4.07;3.87;;;15.30;91.30;;;;;;4944424;28;20724;-25
2021/01/22 11:32:38;;;;;;;3.30;3.20;;;15.30;90.90;;;;;;4943840;28;20554;-26
2021/01/22 11:35:08;;;;;;;9.50;3.97;;;15.30;90.40;;;;;;4945315;28;20441;-25
2021/01/22 11:37:36;;;;;;;3.83;3.60;;;15.30;90.80;;;;;;4948184;28;20505;-25
2021/01/22 11:40:06;;;;;;;11.60;5.10;;;15.60;90.70;;;;;;4946644;28;20474;-25
2021/01/22 11:42:33;;;;;;;12.57;4.83;;;15.90;90.10;;;;;;4939798;28;20956;-25
2021/01/22 11:45:02;;;;;;;4.73;4.40;;;16.20;89.80;;;;;;4947011;28;20657;-26
2021/01/22 11:47:29;;;;;;;4.10;3.57;;;16.40;89.10;;;;;;4943867;28;20496;-25
2021/01/22 11:49:56;;;;;;;3.83;3.57;;;16.30;87.90;;;;;;4947716;28;20489;-25
2021/01/22 11:52:23;;;;;;;3.50;3.40;;;16.40;88.00;;;;;;4944262;28;20445;-25
2021/01/22 11:54:49;;;;;;;3.00;2.90;;;16.50;87.40;;;;;;4946782;28;20444;-26
2021/01/22 11:57:17;;;;;;;3.60;3.50;;;16.30;85.60;;;;;;4943116;28;20475;-25
2021/01/22 11:59:44;;;;;;;4.80;4.47;;;16.00;85.90;;;;;;4945679;28;20861;-26
2021/01/22 12:02:11;;;;;;;3.10;3.00;;;16.00;86.70;;;;;;4942713;28;20456;-25
2021/01/22 12:04:38;;;;;;;3.53;3.30;;;16.00;85.60;;;;;;4941439;28;21144;-25
2021/01/22 12:07:06;;;;;;;5.13;4.83;;;16.00;84.70;;;;;;4946396;28;20500;-25
2021/01/22 12:09:34;;;;;;;5.97;5.57;;;16.10;84.40;;;;;;4910918;28;21084;-25
2021/01/22 12:12:02;;;;;;;4.10;3.80;;;16.20;84.30;;;;;;4948607;28;20911;-26
2021/01/22 12:14:29;;;;;;;6.67;5.97;;;16.30;83.60;;;;;;4925416;28;20858;-25
2021/01/22 12:17:00;;;;;;;11.53;10.50;;;16.30;83.70;;;;;;4925017;28;20670;-26
2021/01/22 12:19:31;;;;;;;4.40;4.03;;;16.40;83.20;;;;;;4935230;28;20671;-27
2021/01/22 12:21:57;;;;;;;4.23;3.93;;;16.30;83.00;;;;;;4946671;28;20532;-26
2021/01/22 12:24:24;;;;;;;4.60;3.90;;;16.20;82.20;;;;;;4938152;28;20998;-27
2021/01/22 12:26:51;;;;;;;3.63;3.43;;;16.20;82.00;;;;;;4948675;28;20560;-26
2021/01/22 12:29:18;;;;;;;3.97;3.77;;;16.00;81.60;;;;;;4947176;28;20785;-26
2021/01/22 12:31:45;;;;;;;3.63;3.33;;;16.00;81.70;;;;;;4946339;28;20437;-27
2021/01/22 12:34:11;;;;;;;5.53;4.50;;;16.00;81.90;;;;;;4947614;28;20733;-26
2021/01/22 12:36:40;;;;;;;3.50;3.40;;;16.00;81.30;;;;;;4924264;28;20580;-26
2021/01/22 12:39:07;;;;;;;8.80;5.97;;;16.00;81.30;;;;;;4947883;28;20452;-26
2021/01/22 12:41:34;;;;;;;4.37;4.10;;;16.00;80.20;;;;;;4945329;28;20467;-27
2021/01/22 12:44:01;;;;;;;5.47;4.17;;;16.10;79.40;;;;;;4946502;28;20816;-27
2021/01/22 12:46:29;;;;;;;4.57;3.63;;;16.20;79.50;;;;;;4951026;28;20785;-27
2021/01/22 12:48:56;;;;;;;3.80;3.70;;;16.30;79.20;;;;;;4947476;28;20456;-27
2021/01/22 12:51:24;;;;;;;4.70;4.30;;;16.40;78.90;;;;;;4949236;28;20795;-26
2021/01/22 12:53:53;;;;;;;7.63;5.90;;;16.60;78.80;;;;;;4929376;29;20595;-26
2021/01/22 12:56:19;;;;;;;3.77;3.67;;;16.70;78.00;;;;;;4947004;28;20555;-26
2021/01/22 12:58:46;;;;;;;5.10;4.67;;;16.80;77.00;;;;;;4948197;28;20438;-27
2021/01/22 13:01:13;;;;;;;4.00;3.70;;;16.80;77.00;;;;;;4949064;28;20875;-26